Time;durP1;ratioP1;P1;durP2;ratioP2;P2;SDS_P1;SDS_P2;PMS_P1;PMS_P2;Temp;Humidity;BMP_temperature;BMP_pressure;BME280_temperature;BME280_humidity;BME280_pressure;Samples;Min_cycle;Max_cycle;Signal;HPM_P1;HPM_P2
2021/04/14 00:02:12;;;;;;;15.13;3.70;;;;;;;-143.98;100.00;68091.63;5096889;28;20056;-83
2021/04/14 00:04:39;;;;;;;16.20;3.83;;;;;;;-143.98;100.00;68091.63;5080330;28;20113;-83
2021/04/14 00:07:07;;;;;;;11.68;4.13;;;;;;;-143.98;100.00;68091.63;5097514;28;20052;-83
2021/04/14 00:09:36;;;;;;;9.07;3.55;;;;;;;-143.98;100.00;68091.63;5080669;28;20064;-83
2021/04/14 00:12:03;;;;;;;8.90;3.78;;;;;;;-143.98;100.00;68091.63;5072219;28;20051;-83
2021/04/14 00:14:32;;;;;;;16.02;3.88;;;;;;;-143.98;100.00;68091.63;5093695;28;20082;-83
2021/04/14 00:17:02;;;;;;;14.27;3.50;;;;;;;-143.98;100.00;68091.63;5095063;28;20050;-83
2021/04/14 00:19:32;;;;;;;9.90;3.92;;;;;;;-143.98;100.00;68091.63;5072584;28;20060;-83
2021/04/14 00:21:59;;;;;;;20.88;4.60;;;;;;;-143.98;100.00;68091.63;5099534;28;20056;-84
2021/04/14 00:24:25;;;;;;;9.02;4.15;;;;;;;-143.98;100.00;68091.63;5081769;28;20052;-84
2021/04/14 00:26:56;;;;;;;16.75;4.13;;;;;;;-143.98;100.00;68091.63;5091240;28;20051;-84
2021/04/14 00:29:22;;;;;;;22.13;4.60;;;;;;;-143.98;100.00;68091.63;5105540;28;20055;-83
2021/04/14 00:31:51;;;;;;;11.18;4.03;;;;;;;-143.98;100.00;68091.63;5110264;28;20047;-83
2021/04/14 00:34:25;;;;;;;12.98;4.40;;;;;;;-143.98;100.00;68091.63;5119563;28;20063;-83
2021/04/14 00:36:53;;;;;;;15.77;4.20;;;;;;;-143.98;100.00;68091.63;5101924;28;20059;-84
2021/04/14 00:39:23;;;;;;;14.25;3.65;;;;;;;-143.98;100.00;68091.63;5108866;28;20066;-84
2021/04/14 00:41:51;;;;;;;10.70;3.90;;;;;;;-143.98;100.00;68091.63;5126469;28;20059;-84
2021/04/14 00:44:20;;;;;;;9.25;4.13;;;;;;;-143.98;100.00;68091.63;5111099;28;20062;-83
2021/04/14 00:46:52;;;;;;;13.77;3.88;;;;;;;-143.98;100.00;68091.63;5119129;28;20074;-84
2021/04/14 00:49:19;;;;;;;10.25;3.72;;;;;;;-143.98;100.00;68091.63;5113913;28;20067;-84
2021/04/14 00:51:46;;;;;;;11.88;3.90;;;;;;;-143.98;100.00;68091.63;5091320;28;20070;-84
2021/04/14 00:54:16;;;;;;;18.25;4.43;;;;;;;-143.98;100.00;68091.63;5107811;28;20055;-84
2021/04/14 00:56:46;;;;;;;6.68;3.38;;;;;;;-143.98;100.00;68091.63;5106997;28;20048;-84
2021/04/14 00:59:12;;;;;;;11.55;3.95;;;;;;;-143.98;100.00;68091.63;5105668;28;20063;-84
2021/04/14 01:01:38;;;;;;;13.98;4.20;;;;;;;-143.98;100.00;68091.63;5105367;28;20059;-84
2021/04/14 01:04:06;;;;;;;17.23;4.00;;;;;;;-143.98;100.00;68091.63;5087656;28;20047;-83
2021/04/14 01:06:32;;;;;;;12.00;3.80;;;;;;;-143.98;100.00;68091.63;5123155;28;20052;-84
2021/04/14 01:08:59;;;;;;;9.38;3.75;;;;;;;-143.98;100.00;68091.63;5090878;28;20067;-84
2021/04/14 01:11:27;;;;;;;14.65;4.40;;;;;;;-143.98;100.00;68091.63;5107946;28;20055;-84
2021/04/14 01:13:55;;;;;;;9.50;3.63;;;;;;;-143.98;100.00;68091.63;5107296;28;20155;-84
2021/04/14 01:16:21;;;;;;;13.02;4.68;;;;;;;-143.98;100.00;68091.63;5086883;28;20051;-83
2021/04/14 01:18:47;;;;;;;13.77;4.45;;;;;;;-143.98;100.00;68091.63;5102890;28;20064;-83
2021/04/14 01:21:37;;;;;;;12.80;4.25;;;;;;;-143.98;100.00;68091.63;5086014;28;20083;-83
2021/04/14 01:24:07;;;;;;;15.32;3.97;;;;;;;-143.98;100.00;68091.63;5102895;28;20064;-83
2021/04/14 01:26:34;;;;;;;9.05;3.60;;;;;;;-143.98;100.00;68091.63;5078251;28;20047;-83
2021/04/14 01:29:02;;;;;;;11.55;4.18;;;;;;;-143.98;100.00;68091.63;5062319;28;20052;-83
2021/04/14 01:31:33;;;;;;;14.07;4.55;;;;;;;-143.98;100.00;68091.63;5080416;28;20412;-83
2021/04/14 01:34:01;;;;;;;8.52;4.03;;;;;;;-143.98;100.00;68091.63;5082564;28;20146;-83
2021/04/14 01:36:27;;;;;;;16.48;4.47;;;;;;;-143.98;100.00;68091.63;5081211;28;20060;-83
2021/04/14 01:38:53;;;;;;;12.88;4.30;;;;;;;-143.98;100.00;68091.63;5065064;28;20147;-83
2021/04/14 01:41:24;;;;;;;12.43;3.72;;;;;;;-143.98;100.00;68091.63;5082365;28;20052;-83
2021/04/14 01:44:00;;;;;;;6.78;3.72;;;;;;;-143.98;100.00;68091.63;5082999;28;20343;-83
2021/04/14 01:46:26;;;;;;;15.60;5.05;;;;;;;-143.98;100.00;68091.63;5063832;28;20060;-83
2021/04/14 01:48:55;;;;;;;14.02;4.57;;;;;;;-143.98;100.00;68091.63;5082768;28;20082;-83
2021/04/14 01:51:21;;;;;;;13.68;4.47;;;;;;;-143.98;100.00;68091.63;5098888;28;20063;-83
2021/04/14 01:53:50;;;;;;;10.15;4.20;;;;;;;-143.98;100.00;68091.63;5098699;28;20341;-83
2021/04/14 01:56:16;;;;;;;12.77;4.40;;;;;;;-143.98;100.00;68091.63;5081228;28;20184;-83
2021/04/14 01:58:58;;;;;;;15.57;5.00;;;;;;;-143.98;100.00;68091.63;5081476;28;20052;-83
2021/04/14 02:01:24;;;;;;;10.70;4.65;;;;;;;-143.98;100.00;68091.63;5082975;28;20062;-83
2021/04/14 02:03:50;;;;;;;11.23;5.00;;;;;;;-143.98;100.00;68091.63;5063835;28;20063;-84
2021/04/14 02:06:17;;;;;;;13.25;4.80;;;;;;;-143.98;100.00;68091.63;5096475;28;20435;-83
2021/04/14 02:08:47;;;;;;;16.15;4.72;;;;;;;-143.98;100.00;68091.63;5078576;28;20056;-83
2021/04/14 02:11:14;;;;;;;7.55;4.38;;;;;;;-143.98;100.00;68091.63;5097343;28;20067;-83
2021/04/14 02:13:42;;;;;;;18.52;5.72;;;;;;;-143.98;100.00;68091.63;5079011;28;20423;-83
2021/04/14 02:16:13;;;;;;;12.18;5.10;;;;;;;-143.98;100.00;68091.63;5063207;28;20118;-83
2021/04/14 02:18:40;;;;;;;12.95;5.03;;;;;;;-143.98;100.00;68091.63;5078746;28;20164;-83
2021/04/14 02:21:06;;;;;;;11.68;5.20;;;;;;;-143.98;100.00;68091.63;5062657;28;20250;-83
2021/04/14 02:23:35;;;;;;;13.32;4.88;;;;;;;-143.98;100.00;68091.63;5078871;28;20047;-83
2021/04/14 02:26:06;;;;;;;19.80;5.25;;;;;;;-143.98;100.00;68091.63;5099864;28;20063;-83
2021/04/14 02:28:37;;;;;;;20.55;6.30;;;;;;;-143.98;100.00;68091.63;5104267;28;20465;-83
2021/04/14 02:31:04;;;;;;;15.07;5.30;;;;;;;-143.98;100.00;68091.63;5097525;28;20066;-83
2021/04/14 02:33:30;;;;;;;14.02;5.05;;;;;;;-143.98;100.00;68091.63;5108394;28;20086;-83
2021/04/14 02:35:59;;;;;;;10.82;4.55;;;;;;;-143.98;100.00;68091.63;5101972;28;20056;-83
2021/04/14 02:38:26;;;;;;;17.05;5.10;;;;;;;-143.98;100.00;68091.63;5100966;28;20099;-83
2021/04/14 02:40:52;;;;;;;15.40;5.63;;;;;;;-143.98;100.00;68091.63;5118674;28;20097;-82
2021/04/14 02:43:22;;;;;;;9.13;4.53;;;;;;;-143.98;100.00;68091.63;5119541;28;20055;-83
2021/04/14 02:45:51;;;;;;;13.15;4.40;;;;;;;-143.98;100.00;68091.63;5101888;28;20092;-83
2021/04/14 02:48:17;;;;;;;15.45;4.80;;;;;;;-143.98;100.00;68091.63;5085082;28;20414;-83
2021/04/14 02:50:43;;;;;;;14.63;4.90;;;;;;;-143.98;100.00;68091.63;5100416;28;20128;-83
2021/04/14 02:53:13;;;;;;;16.02;4.65;;;;;;;-143.98;100.00;68091.63;5099643;28;20112;-83
2021/04/14 02:55:40;;;;;;;12.38;5.38;;;;;;;-143.98;100.00;68091.63;5102875;28;20063;-83
2021/04/14 02:58:06;;;;;;;14.20;5.00;;;;;;;-143.98;100.00;68091.63;5120210;28;20083;-83
2021/04/14 03:00:35;;;;;;;10.52;5.50;;;;;;;-143.98;100.00;68091.63;5102600;28;20066;-83
2021/04/14 03:03:05;;;;;;;11.60;5.20;;;;;;;-143.98;100.00;68091.63;5106083;28;20052;-83
2021/04/14 03:05:34;;;;;;;12.60;5.03;;;;;;;-143.98;100.00;68091.63;5116299;28;20078;-83
2021/04/14 03:08:00;;;;;;;17.75;5.20;;;;;;;-143.98;100.00;68091.63;5099025;28;20039;-83
2021/04/14 03:10:27;;;;;;;19.15;4.95;;;;;;;-143.98;100.00;68091.63;5097959;28;20044;-83
2021/04/14 03:12:57;;;;;;;13.98;5.05;;;;;;;-143.98;100.00;68091.63;5093313;28;20059;-83
2021/04/14 03:15:35;;;;;;;14.02;5.15;;;;;;;-143.98;100.00;68091.63;5089134;28;20060;-82
2021/04/14 03:18:02;;;;;;;16.00;6.18;;;;;;;-143.98;100.00;68091.63;5085856;28;20048;-82
2021/04/14 03:20:28;;;;;;;18.58;5.10;;;;;;;-143.98;100.00;68091.63;5100719;28;20055;-82
2021/04/14 03:22:57;;;;;;;14.02;5.53;;;;;;;-143.98;100.00;68091.63;5084785;28;20067;-82
2021/04/14 03:25:26;;;;;;;18.48;5.97;;;;;;;-143.98;100.00;68091.63;5102193;28;20052;-82
2021/04/14 03:27:53;;;;;;;14.82;5.57;;;;;;;-143.98;100.00;68091.63;5101428;28;20051;-83
2021/04/14 03:30:20;;;;;;;15.43;5.07;;;;;;;-143.98;100.00;68091.63;5082834;28;20393;-83
2021/04/14 03:32:50;;;;;;;20.25;5.68;;;;;;;-143.98;100.00;68091.63;5102565;28;20062;-82
2021/04/14 03:35:17;;;;;;;15.95;5.55;;;;;;;-143.98;100.00;68091.63;5099990;28;20068;-82
2021/04/14 03:37:43;;;;;;;14.85;4.53;;;;;;;-143.98;100.00;68091.63;5102965;28;20427;-82
2021/04/14 03:40:11;;;;;;;23.10;5.38;;;;;;;-143.98;100.00;68091.63;5085892;28;20059;-83
2021/04/14 03:42:37;;;;;;;13.63;5.75;;;;;;;-143.98;100.00;68091.63;5102993;28;20072;-83
2021/04/14 03:45:15;;;;;;;10.35;5.32;;;;;;;-143.98;100.00;68091.63;5100165;28;20439;-83
2021/04/14 03:47:44;;;;;;;22.92;5.28;;;;;;;-143.98;100.00;68091.63;5086202;28;20075;-83
2021/04/14 03:50:15;;;;;;;17.80;5.82;;;;;;;-143.98;100.00;68091.63;5100592;28;20355;-82
2021/04/14 03:52:44;;;;;;;9.10;4.43;;;;;;;-143.98;100.00;68091.63;5118046;28;20051;-83
2021/04/14 03:55:12;;;;;;;15.77;5.10;;;;;;;-143.98;100.00;68091.63;5099542;28;20055;-83
2021/04/14 03:57:38;;;;;;;18.30;5.43;;;;;;;-143.98;100.00;68091.63;5083575;28;20324;-83
2021/04/14 04:00:09;;;;;;;17.00;5.28;;;;;;;-143.98;100.00;68091.63;5083403;28;20078;-83
2021/04/14 04:02:40;;;;;;;13.32;5.32;;;;;;;-143.98;100.00;68091.63;5092945;28;20050;-83
2021/04/14 04:05:09;;;;;;;12.23;6.00;;;;;;;-143.98;100.00;68091.63;5100611;28;20058;-84
2021/04/14 04:07:36;;;;;;;16.05;5.50;;;;;;;-143.98;100.00;68091.63;5111556;28;20055;-84
2021/04/14 04:10:07;;;;;;;15.52;5.20;;;;;;;-143.98;100.00;68091.63;5105822;28;20060;-84
2021/04/14 04:12:33;;;;;;;18.70;5.65;;;;;;;-143.98;100.00;68091.63;5122724;28;20047;-83
2021/04/14 04:15:11;;;;;;;13.05;5.82;;;;;;;-143.98;100.00;68091.63;5111286;28;20039;-83
2021/04/14 04:17:37;;;;;;;13.43;4.75;;;;;;;-143.98;100.00;68091.63;5099287;28;20055;-84
2021/04/14 04:20:06;;;;;;;12.35;5.78;;;;;;;-143.98;100.00;68091.63;5105588;28;20071;-84
2021/04/14 04:22:32;;;;;;;13.18;5.18;;;;;;;-143.98;100.00;68091.63;5102328;28;20062;-84
2021/04/14 04:24:58;;;;;;;18.23;6.10;;;;;;;-143.98;100.00;68091.63;5083751;28;20074;-85
2021/04/14 04:27:25;;;;;;;17.77;5.35;;;;;;;-143.98;100.00;68091.63;5117858;28;20128;-83
2021/04/14 04:29:51;;;;;;;18.35;6.22;;;;;;;-143.98;100.00;68091.63;5099421;28;20132;-83
2021/04/14 04:32:33;;;;;;;14.73;6.07;;;;;;;-143.98;100.00;68091.63;5083740;28;20386;-83
2021/04/14 04:35:00;;;;;;;12.52;5.65;;;;;;;-143.98;100.00;68091.63;5101966;28;20055;-83
2021/04/14 04:37:31;;;;;;;18.10;5.80;;;;;;;-143.98;100.00;68091.63;5101717;28;20098;-83
2021/04/14 04:39:58;;;;;;;19.65;6.32;;;;;;;-143.98;100.00;68091.63;5084730;28;20083;-83
2021/04/14 04:42:27;;;;;;;16.98;5.55;;;;;;;-143.98;100.00;68091.63;5087199;28;20049;-83
2021/04/14 04:45:05;;;;;;;11.68;5.95;;;;;;;-143.98;100.00;68091.63;5102245;28;20134;-82
2021/04/14 04:47:33;;;;;;;14.90;5.70;;;;;;;-143.98;100.00;68091.63;5086118;28;20101;-84
2021/04/14 04:50:02;;;;;;;15.02;6.28;;;;;;;-143.98;100.00;68091.63;5099346;28;20055;-84
2021/04/14 04:52:28;;;;;;;17.55;5.55;;;;;;;-143.98;100.00;68091.63;5082562;28;20086;-85
2021/04/14 04:54:56;;;;;;;18.25;6.43;;;;;;;-143.98;100.00;68091.63;5081971;28;20090;-82
2021/04/14 04:57:22;;;;;;;12.38;5.80;;;;;;;-143.98;100.00;68091.63;5098270;28;20051;-81
2021/04/14 04:59:52;;;;;;;14.55;5.47;;;;;;;-143.98;100.00;68091.63;5115123;28;20346;-81
2021/04/14 05:02:19;;;;;;;16.70;5.88;;;;;;;-143.98;100.00;68091.63;5097554;28;20069;-81
2021/04/14 05:04:45;;;;;;;11.57;5.65;;;;;;;-143.98;100.00;68091.63;5101671;28;20062;-81
2021/04/14 05:07:15;;;;;;;11.13;5.78;;;;;;;-143.98;100.00;68091.63;5112243;28;20067;-82
2021/04/14 05:09:45;;;;;;;14.52;6.40;;;;;;;-143.98;100.00;68091.63;5112071;28;20259;-83
2021/04/14 05:12:12;;;;;;;12.80;6.75;;;;;;;-143.98;100.00;68091.63;5105162;28;20105;-83
2021/04/14 05:14:38;;;;;;;13.23;5.97;;;;;;;-143.98;100.00;68091.63;5081892;28;20059;-81
2021/04/14 05:17:08;;;;;;;10.88;5.78;;;;;;;-143.98;100.00;68091.63;5096236;28;20055;-81
2021/04/14 05:19:35;;;;;;;23.15;6.57;;;;;;;-143.98;100.00;68091.63;5079348;28;20067;-81
2021/04/14 05:22:01;;;;;;;13.95;5.28;;;;;;;-143.98;100.00;68091.63;5117507;28;20066;-83
2021/04/14 05:24:28;;;;;;;10.13;5.43;;;;;;;-143.98;100.00;68091.63;5089629;28;20052;-81
2021/04/14 05:26:54;;;;;;;7.60;5.38;;;;;;;-143.98;100.00;68091.63;5087878;28;20063;-82
2021/04/14 05:29:23;;;;;;;10.90;4.53;;;;;;;-143.98;100.00;68091.63;5097503;28;20055;-82
2021/04/14 05:31:49;;;;;;;6.95;4.32;;;;;;;-143.98;100.00;68091.63;5095839;28;20048;-82
2021/04/14 05:34:16;;;;;;;8.40;4.15;;;;;;;-143.98;100.00;68091.63;5095278;28;20066;-81
2021/04/14 05:36:42;;;;;;;9.02;4.13;;;;;;;-143.98;100.00;68091.63;5078876;28;20135;-82
2021/04/14 05:39:11;;;;;;;11.45;4.10;;;;;;;-143.98;100.00;68091.63;5081128;28;20501;-81
2021/04/14 05:41:37;;;;;;;12.90;4.65;;;;;;;-143.98;100.00;68091.63;5091556;28;20426;-82
2021/04/14 05:44:08;;;;;;;18.30;5.07;;;;;;;-143.98;100.00;68091.63;5090592;28;20114;-82
2021/04/14 05:46:35;;;;;;;8.13;4.30;;;;;;;-143.98;100.00;68091.63;5090095;28;20359;-81
2021/04/14 05:49:04;;;;;;;8.90;3.90;;;;;;;-143.98;100.00;68091.63;5074050;28;20111;-81
2021/04/14 05:51:35;;;;;;;6.30;3.33;;;;;;;-143.98;100.00;68091.63;5075875;28;20052;-82
2021/04/14 05:54:11;;;;;;;11.70;4.18;;;;;;;-143.98;100.00;68091.63;5073895;28;20191;-81
2021/04/14 05:56:37;;;;;;;7.90;4.10;;;;;;;-143.98;100.00;68091.63;5072283;28;20109;-81
2021/04/14 05:59:04;;;;;;;7.93;4.47;;;;;;;-143.98;100.00;68091.63;5090497;28;20086;-81
2021/04/14 06:01:35;;;;;;;12.95;4.07;;;;;;;-143.98;100.00;68091.63;5075893;28;20447;-81
2021/04/14 06:04:07;;;;;;;9.75;3.58;;;;;;;-143.98;100.00;68091.63;5090067;28;20072;-82
2021/04/14 06:06:33;;;;;;;13.85;3.80;;;;;;;-143.98;100.00;68091.63;5090344;28;20110;-81
2021/04/14 06:09:02;;;;;;;7.72;3.33;;;;;;;-143.98;100.00;68091.63;5097050;28;20144;-82
2021/04/14 06:11:32;;;;;;;10.68;3.67;;;;;;;-143.98;100.00;68091.63;5076760;28;20143;-82
2021/04/14 06:14:09;;;;;;;10.32;4.13;;;;;;;-143.98;100.00;68091.63;5070922;28;20426;-81
2021/04/14 06:16:36;;;;;;;14.00;4.22;;;;;;;-143.98;100.00;68091.63;5069799;28;20055;-81
2021/04/14 06:19:07;;;;;;;9.35;4.32;;;;;;;-143.98;100.00;68091.63;5088979;28;20403;-81
2021/04/14 06:21:37;;;;;;;6.93;3.58;;;;;;;-143.98;100.00;68091.63;5091441;28;20063;-82
2021/04/14 06:24:05;;;;;;;5.93;2.88;;;;;;;-143.98;100.00;68091.63;5092036;28;20262;-82
2021/04/14 06:26:49;;;;;;;13.45;3.38;;;;;;;-143.98;100.00;68091.63;5060613;28;20063;-81
2021/04/14 06:29:15;;;;;;;9.40;2.67;;;;;;;-143.98;100.00;68091.63;5081810;28;20055;-82
2021/04/14 06:31:42;;;;;;;11.15;2.33;;;;;;;-143.98;100.00;68091.63;5092392;28;20044;-82
2021/04/14 06:34:21;;;;;;;5.28;2.35;;;;;;;-143.98;100.00;68091.63;5076823;28;20110;-81
2021/04/14 06:36:49;;;;;;;6.30;2.72;;;;;;;-143.98;100.00;68091.63;5080782;28;20055;-81
2021/04/14 06:39:20;;;;;;;5.43;1.88;;;;;;;-143.98;100.00;68091.63;5093195;28;20055;-83
2021/04/14 06:42:03;;;;;;;5.88;2.40;;;;;;;-143.98;100.00;68091.63;5109044;28;20355;-82
2021/04/14 06:44:59;;;;;;;6.10;2.10;;;;;;;-143.98;100.00;68091.63;5108499;28;20052;-82
2021/04/14 06:47:51;;;;;;;6.20;1.55;;;;;;;-143.98;100.00;68091.63;5108883;28;20142;-82
2021/04/14 06:50:59;;;;;;;3.85;1.70;;;;;;;-143.98;100.00;68091.63;5096745;28;20100;-83
2021/04/14 06:53:56;;;;;;;7.72;1.95;;;;;;;-143.98;100.00;68091.63;5079162;28;20286;-80
2021/04/14 06:56:23;;;;;;;6.80;2.22;;;;;;;-143.98;100.00;68091.63;5074826;28;20232;-79
2021/04/14 06:59:15;;;;;;;8.07;2.13;;;;;;;-143.98;100.00;68091.63;5079883;28;20052;-80
2021/04/14 07:01:53;;;;;;;10.68;2.25;;;;;;;-143.98;100.00;68091.63;5080590;28;20119;-79
2021/04/14 07:04:33;;;;;;;6.57;1.90;;;;;;;-143.98;100.00;68091.63;5094586;28;20210;-80
2021/04/14 07:07:01;;;;;;;12.95;2.60;;;;;;;-143.98;100.00;68091.63;5111966;28;20117;-80
2021/04/14 07:09:37;;;;;;;4.68;3.05;;;;;;;-143.98;100.00;68091.63;5077582;28;20063;-81
2021/04/14 07:12:07;;;;;;;6.03;2.35;;;;;;;-143.98;100.00;68091.63;5091809;28;20083;-81
2021/04/14 07:14:36;;;;;;;6.45;2.35;;;;;;;-143.98;100.00;68091.63;5077648;28;20134;-81
2021/04/14 07:17:21;;;;;;;8.10;2.88;;;;;;;-143.98;100.00;68091.63;5094421;28;20228;-81
2021/04/14 07:20:02;;;;;;;8.35;2.55;;;;;;;-143.98;100.00;68091.63;5113246;28;20059;-80
2021/04/14 07:23:00;;;;;;;12.88;3.22;;;;;;;-143.98;100.00;68091.63;5091724;28;20051;-80
2021/04/14 07:25:37;;;;;;;9.70;2.38;;;;;;;-143.98;100.00;68091.63;5091885;28;20055;-80
2021/04/14 07:28:29;;;;;;;11.05;3.75;;;;;;;-143.98;100.00;68091.63;5058398;28;20363;-81
2021/04/14 07:31:17;;;;;;;11.95;2.90;;;;;;;-143.98;100.00;68091.63;5087638;28;20048;-80
2021/04/14 07:34:01;;;;;;;11.80;2.95;;;;;;;-143.98;100.00;68091.63;5088172;28;20048;-80
2021/04/14 07:36:56;;;;;;;12.00;2.75;;;;;;;-143.98;100.00;68091.63;5082119;28;20048;-80
2021/04/14 07:39:43;;;;;;;8.30;2.55;;;;;;;-143.98;100.00;68091.63;5082465;28;20048;-81
2021/04/14 07:42:23;;;;;;;10.10;3.42;;;;;;;-143.98;100.00;68091.63;5084842;28;20128;-81
2021/04/14 07:45:14;;;;;;;11.95;3.53;;;;;;;-143.98;100.00;68091.63;5092197;28;20154;-80
2021/04/14 07:47:45;;;;;;;11.23;2.80;;;;;;;-143.98;100.00;68091.63;5089275;28;20055;-80
2021/04/14 07:50:16;;;;;;;10.57;3.13;;;;;;;-143.98;100.00;68091.63;5073441;28;20040;-81
2021/04/14 07:52:48;;;;;;;8.68;2.95;;;;;;;-143.98;100.00;68091.63;5088778;28;20102;-79
2021/04/14 07:55:32;;;;;;;8.32;2.45;;;;;;;-143.98;100.00;68091.63;5074591;28;20067;-80
2021/04/14 07:58:09;;;;;;;7.93;2.72;;;;;;;-143.98;100.00;68091.63;5056939;28;20052;-80
2021/04/14 08:00:45;;;;;;;5.68;1.85;;;;;;;-143.98;100.00;68091.63;5069178;28;20060;-80
2021/04/14 08:03:29;;;;;;;7.18;2.08;;;;;;;-143.98;100.00;68091.63;5056923;28;20066;-82
2021/04/14 08:06:16;;;;;;;6.65;2.22;;;;;;;-143.98;100.00;68091.63;5075098;28;20062;-82
2021/04/14 08:08:47;;;;;;;12.65;1.83;;;;;;;-143.98;100.00;68091.63;5054383;28;20063;-80
2021/04/14 08:11:32;;;;;;;6.65;1.50;;;;;;;-143.98;100.00;68091.63;5073337;28;20090;-79
2021/04/14 08:14:15;;;;;;;11.23;2.10;;;;;;;-143.98;100.00;68091.63;5074191;28;20066;-81
2021/04/14 08:16:46;;;;;;;6.32;1.83;;;;;;;-143.98;100.00;68091.63;5073495;28;20070;-80
2021/04/14 08:19:27;;;;;;;8.15;1.55;;;;;;;-143.98;100.00;68091.63;5068483;28;20052;-81
2021/04/14 08:22:01;;;;;;;7.72;1.85;;;;;;;-143.98;100.00;68091.63;5077933;28;20142;-81
2021/04/14 08:24:38;;;;;;;8.55;1.73;;;;;;;-143.98;100.00;68091.63;5055453;28;20222;-81
2021/04/14 08:27:32;;;;;;;11.82;1.83;;;;;;;-143.98;100.00;68091.63;5054525;28;712480;-80
2021/04/14 08:30:02;;;;;;;8.15;1.58;;;;;;;-143.98;100.00;68091.63;5101482;28;20059;-81
2021/04/14 08:32:43;;;;;;;6.78;1.63;;;;;;;-143.98;100.00;68091.63;5119522;28;20096;-81
2021/04/14 08:35:26;;;;;;;7.57;1.50;;;;;;;-143.98;100.00;68091.63;5093258;28;20422;-82
2021/04/14 08:38:11;;;;;;;5.68;1.30;;;;;;;-143.98;100.00;68091.63;5109981;28;20059;-81
2021/04/14 08:40:51;;;;;;;9.98;1.85;;;;;;;-143.98;100.00;68091.63;5109070;28;20229;-80
2021/04/14 08:43:22;;;;;;;;;;;;;;;-143.98;100.00;68091.63;5075389;28;20146;-80
2021/04/14 08:46:34;;;;;;;8.40;1.38;;;;;;;-143.98;100.00;68091.63;5091215;28;19953;-79
2021/04/14 08:49:07;;;;;;;8.63;2.30;;;;;;;-143.98;100.00;68091.63;5105650;28;20047;-81
2021/04/14 08:51:43;;;;;;;10.23;1.40;;;;;;;-143.98;100.00;68091.63;5090965;28;20087;-81
2021/04/14 08:54:14;;;;;;;10.68;2.13;;;;;;;-143.98;100.00;68091.63;5089385;28;20054;-80
2021/04/14 08:56:40;;;;;;;5.88;1.70;;;;;;;-143.98;100.00;68091.63;5100996;28;20268;-80
2021/04/14 08:59:18;;;;;;;8.18;1.35;;;;;;;-143.98;100.00;68091.63;5091235;28;20149;-82
2021/04/14 09:01:51;;;;;;;7.32;1.30;;;;;;;-143.98;100.00;68091.63;5074190;28;20051;-80
2021/04/14 09:04:26;;;;;;;4.38;1.00;;;;;;;-143.98;100.00;68091.63;5089285;28;20047;-80
2021/04/14 09:06:53;;;;;;;5.63;1.50;;;;;;;-143.98;100.00;68091.63;5072158;28;20144;-79
2021/04/14 09:09:21;;;;;;;7.13;1.30;;;;;;;-143.98;100.00;68091.63;5087112;28;20389;-81
2021/04/14 09:11:59;;;;;;;6.70;1.30;;;;;;;-143.98;100.00;68091.63;5070719;28;20048;-81
2021/04/14 09:14:29;;;;;;;10.55;1.90;;;;;;;-143.98;100.00;68091.63;5103799;28;20059;-80
2021/04/14 09:17:08;;;;;;;4.15;1.15;;;;;;;-143.98;100.00;68091.63;5071074;28;20090;-80
2021/04/14 09:19:50;;;;;;;8.88;1.20;;;;;;;-143.98;100.00;68091.63;5071587;28;20078;-81
2021/04/14 09:22:24;;;;;;;5.60;0.73;;;;;;;-143.98;100.00;68091.63;5089613;28;20147;-81
2021/04/14 09:25:10;;;;;;;4.75;0.57;;;;;;;-143.98;100.00;68091.63;5071137;28;20544;-79
2021/04/14 09:27:45;;;;;;;;;;;;;;;-143.98;100.00;68091.63;5060746;28;20214;-80
2021/04/14 09:30:39;;;;;;;1.65;0.30;;;;;;;-143.98;100.00;68091.63;5069151;28;19927;-81
2021/04/14 09:33:15;;;;;;;1.95;0.40;;;;;;;-143.98;100.00;68091.63;5072177;28;20436;-82
2021/04/14 09:35:50;;;;;;;0.45;0.30;;;;;;;-143.98;100.00;68091.63;5068145;28;20355;-82
2021/04/14 09:38:27;;;;;;;2.05;0.40;;;;;;;-143.98;100.00;68091.63;5083912;28;20092;-79
2021/04/14 09:41:16;;;;;;;1.27;0.40;;;;;;;-143.98;100.00;68091.63;5068505;28;20056;-80
2021/04/14 09:43:44;;;;;;;0.70;0.45;;;;;;;-143.98;100.00;68091.63;5070598;28;20138;-80
2021/04/14 09:46:38;;;;;;;1.17;0.40;;;;;;;-143.98;100.00;68091.63;5053887;28;20059;-80
2021/04/14 09:49:13;;;;;;;1.60;0.50;;;;;;;-143.98;100.00;68091.63;5053443;28;20060;-80
2021/04/14 09:51:59;;;;;;;3.50;0.60;;;;;;;-143.98;100.00;68091.63;5073008;28;20078;-80
2021/04/14 09:54:34;;;;;;;1.17;0.40;;;;;;;-143.98;100.00;68091.63;5083676;28;20063;-80
2021/04/14 09:57:05;;;;;;;1.00;0.55;;;;;;;-143.98;100.00;68091.63;5083370;28;20134;-79
2021/04/14 09:59:46;;;;;;;5.50;0.80;;;;;;;-143.98;100.00;68091.63;5080895;28;20156;-80
2021/04/14 10:02:19;;;;;;;1.27;0.63;;;;;;;-143.98;100.00;68091.63;5054277;28;20056;-80
2021/04/14 10:04:47;;;;;;;2.78;0.63;;;;;;;-143.98;100.00;68091.63;5055495;28;20052;-80
2021/04/14 10:07:29;;;;;;;7.97;1.92;;;;;;;-143.98;100.00;68091.63;5067725;28;20052;-80
2021/04/14 10:10:18;;;;;;;4.70;1.10;;;;;;;-143.98;100.00;68091.63;5050154;28;20399;-79
2021/04/14 10:12:56;;;;;;;2.58;0.80;;;;;;;-143.98;100.00;68091.63;5066829;28;20052;-78
2021/04/14 10:15:48;;;;;;;2.47;0.75;;;;;;;-143.98;100.00;68091.63;5049971;28;20335;-79
2021/04/14 10:18:30;;;;;;;5.35;0.90;;;;;;;-143.98;100.00;68091.63;5054644;28;20151;-79
2021/04/14 10:21:11;;;;;;;6.93;1.05;;;;;;;-143.98;100.00;68091.63;5068368;28;20195;-78
2021/04/14 10:23:38;;;;;;;10.93;1.48;;;;;;;-143.98;100.00;68091.63;5083595;28;20063;-78
2021/04/14 10:26:09;;;;;;;3.10;1.05;;;;;;;-143.98;100.00;68091.63;5048094;28;20052;-79
2021/04/14 10:28:42;;;;;;;5.93;1.15;;;;;;;-143.98;100.00;68091.63;5049807;28;20074;-80
2021/04/14 10:31:22;;;;;;;4.68;1.23;;;;;;;-143.98;100.00;68091.63;5067635;28;20063;-79
2021/04/14 10:33:51;;;;;;;5.20;0.90;;;;;;;-143.98;100.00;68091.63;5048439;28;20091;-79
2021/04/14 10:36:36;;;;;;;3.63;0.90;;;;;;;-143.98;100.00;68091.63;5046879;28;20083;-79
2021/04/14 10:39:19;;;;;;;4.55;0.82;;;;;;;-143.98;100.00;68091.63;5049873;28;20253;-79
2021/04/14 10:41:47;;;;;;;5.57;0.90;;;;;;;-143.98;100.00;68091.63;5066479;28;20101;-79
2021/04/14 10:44:18;;;;;;;4.30;1.10;;;;;;;-143.98;100.00;68091.63;5067134;28;20052;-79
2021/04/14 10:46:49;;;;;;;6.18;0.70;;;;;;;-143.98;100.00;68091.63;5065400;28;20055;-80
2021/04/14 10:49:32;;;;;;;2.58;0.90;;;;;;;-143.98;100.00;68091.63;5049044;28;20091;-80
2021/04/14 10:52:27;;;;;;;3.10;0.85;;;;;;;-143.98;100.00;68091.63;5050252;28;20616;-82
2021/04/14 10:54:57;;;;;;;7.57;0.90;;;;;;;-143.98;100.00;68091.63;5061281;28;20056;-80
2021/04/14 10:57:29;;;;;;;7.78;1.35;;;;;;;-143.98;100.00;68091.63;5050615;28;20056;-80
2021/04/14 11:00:13;;;;;;;2.58;1.02;;;;;;;-143.98;100.00;68091.63;5051318;28;20113;-80
2021/04/14 11:02:45;;;;;;;5.30;1.02;;;;;;;-143.98;100.00;68091.63;5048913;28;20063;-80
2021/04/14 11:05:14;;;;;;;2.88;0.80;;;;;;;-143.98;100.00;68091.63;5073041;28;20067;-79
2021/04/14 11:07:44;;;;;;;3.97;1.00;;;;;;;-143.98;100.00;68091.63;5054236;28;20137;-80
2021/04/14 11:10:16;;;;;;;6.13;0.90;;;;;;;-143.98;100.00;68091.63;5058993;28;20194;-80
2021/04/14 11:12:49;;;;;;;6.10;0.70;;;;;;;-143.98;100.00;68091.63;5055931;28;20198;-80
2021/04/14 11:15:23;;;;;;;4.85;0.80;;;;;;;-143.98;100.00;68091.63;5054091;28;20159;-80
2021/04/14 11:18:00;;;;;;;5.95;1.35;;;;;;;-143.98;100.00;68091.63;5058611;28;20048;-80
2021/04/14 11:20:45;;;;;;;2.85;0.90;;;;;;;-143.98;100.00;68091.63;5043700;28;20083;-79
2021/04/14 11:23:29;;;;;;;;;;;;;;;-143.98;100.00;68091.63;5053177;28;20063;-80
2021/04/14 11:26:18;;;;;;;3.45;0.95;;;;;;;-143.98;100.00;68091.63;5032654;28;19927;-80
2021/04/14 11:28:54;;;;;;;5.10;1.00;;;;;;;-143.98;100.00;68091.63;5035442;28;20055;-80
2021/04/14 11:31:41;;;;;;;4.18;0.80;;;;;;;-143.98;100.00;68091.63;5034361;28;20052;-80
2021/04/14 11:34:40;;;;;;;2.63;0.70;;;;;;;-143.98;100.00;68091.63;5082038;28;20064;-79